createdAt,value
2023-02-01T01:20:01.996Z,6.38
2023-02-01T01:22:29.537Z,6.60
2023-02-01T01:24:57.047Z,6.25
2023-02-01T01:27:26.048Z,6.45
2023-02-01T01:29:53.596Z,6.32
2023-02-01T01:32:21.104Z,8.57
2023-02-01T01:34:48.978Z,8.43
2023-02-01T01:37:17.842Z,9.50
2023-02-01T01:39:45.311Z,8.10
2023-02-01T01:42:14.128Z,7.40
2023-02-01T01:45:01.922Z,8.07
2023-02-01T01:47:31.041Z,7.53
2023-02-01T01:49:58.633Z,6.72
2023-02-01T01:52:27.492Z,6.38
2023-02-01T01:54:55.403Z,8.90
2023-02-01T01:57:25.441Z,7.85
2023-02-01T01:59:56.712Z,7.65
2023-02-01T02:02:24.269Z,7.70
2023-02-01T02:04:51.780Z,7.50
2023-02-01T02:07:21.351Z,7.57
2023-02-01T02:10:00.129Z,6.93
2023-02-01T02:12:28.332Z,7.93
2023-02-01T02:14:56.063Z,7.13
2023-02-01T02:17:32.184Z,8.50
2023-02-01T02:20:18.099Z,8.20
2023-02-01T02:23:00.120Z,7.40
2023-02-01T02:25:48.647Z,7.63
2023-02-01T02:28:26.800Z,8.18
2023-02-01T02:31:15.522Z,6.93
2023-02-01T02:33:54.009Z,7.15
2023-02-01T02:36:26.458Z,6.65
2023-02-01T02:38:57.503Z,8.02
2023-02-01T02:41:47.513Z,8.25
2023-02-01T02:44:46.140Z,8.30
2023-02-01T02:47:28.548Z,8.05
2023-02-01T02:50:29.280Z,8.57
2023-02-01T02:53:17.222Z,8.18
2023-02-01T02:55:45.294Z,9.45
2023-02-01T02:58:30.457Z,8.95
2023-02-01T03:01:15.851Z,11.25
2023-02-01T03:04:02.082Z,10.98
2023-02-01T03:06:30.984Z,11.02
2023-02-01T03:09:00.419Z,9.75
2023-02-01T03:11:49.531Z,12.00
2023-02-01T03:14:17.156Z,10.93
2023-02-01T03:16:48.296Z,10.30
2023-02-01T03:19:17.891Z,10.05
2023-02-01T03:21:50.787Z,9.10
2023-02-01T03:24:21.143Z,9.20
2023-02-01T03:26:53.361Z,8.90
2023-02-01T03:29:23.573Z,9.27
2023-02-01T03:31:51.222Z,9.50
2023-02-01T03:34:18.811Z,8.70
2023-02-01T03:36:50.167Z,9.73
2023-02-01T03:39:20.706Z,9.98
2023-02-01T03:41:49.847Z,11.23
2023-02-01T03:44:20.398Z,10.18
2023-02-01T03:46:50.717Z,7.70
2023-02-01T03:49:20.616Z,9.82
2023-02-01T03:51:50.719Z,9.80
2023-02-01T03:54:19.837Z,8.98
2023-02-01T03:56:49.187Z,10.73
2023-02-01T03:59:16.850Z,10.45
2023-02-01T04:01:44.394Z,10.18
2023-02-01T04:04:11.915Z,8.52
2023-02-01T04:06:39.427Z,10.02
2023-02-01T04:09:08.247Z,9.85
2023-02-01T04:11:35.817Z,9.18
2023-02-01T04:14:05.373Z,9.05
2023-02-01T04:16:33.340Z,8.50
2023-02-01T04:19:01.265Z,10.00
2023-02-01T04:21:29.066Z,9.82
2023-02-01T04:23:56.581Z,9.65
2023-02-01T04:26:25.483Z,9.38
2023-02-01T04:28:53.747Z,9.98
2023-02-01T04:31:26.397Z,10.57
2023-02-01T04:33:54.641Z,9.55
2023-02-01T04:36:22.908Z,10.02
2023-02-01T04:38:50.433Z,10.20
2023-02-01T04:41:19.715Z,12.20
2023-02-01T04:43:48.651Z,10.98
2023-02-01T04:46:16.266Z,9.77
2023-02-01T04:48:44.049Z,11.18
2023-02-01T04:51:12.061Z,10.55
2023-02-01T04:53:39.756Z,10.27
2023-02-01T04:56:13.775Z,12.30
2023-02-01T05:01:10.000Z,8.48
2023-02-01T05:03:37.595Z,9.85
2023-02-01T05:06:06.008Z,8.98
2023-02-01T05:08:33.962Z,10.63
2023-02-01T05:11:03.602Z,8.82
2023-02-01T05:13:48.813Z,10.60
2023-02-01T05:16:17.855Z,11.38
2023-02-01T05:18:45.423Z,9.60
2023-02-01T05:21:12.978Z,9.95
2023-02-01T05:23:56.339Z,8.70
2023-02-01T05:26:23.834Z,9.18
2023-02-01T05:28:54.838Z,8.77
2023-02-01T05:31:24.605Z,8.90
2023-02-01T05:33:57.421Z,8.15
2023-02-01T05:36:28.296Z,8.00
2023-02-01T05:39:09.874Z,8.38
2023-02-01T05:41:49.536Z,7.45
2023-02-01T05:44:17.582Z,8.50
2023-02-01T05:47:14.031Z,8.90
2023-02-01T05:49:56.319Z,8.35
2023-02-01T05:52:26.950Z,8.35
2023-02-01T05:55:02.598Z,8.30
2023-02-01T05:57:31.125Z,8.55
2023-02-01T06:00:00.360Z,8.60
2023-02-01T06:02:50.198Z,9.80
2023-02-01T06:05:19.151Z,8.85
2023-02-01T06:07:46.973Z,8.63
2023-02-01T06:10:17.089Z,9.02
2023-02-01T06:12:45.837Z,9.35
2023-02-01T06:15:13.382Z,10.55
2023-02-01T06:17:42.394Z,9.32
2023-02-01T06:20:12.026Z,9.45
2023-02-01T06:22:41.431Z,9.90
2023-02-01T06:25:10.298Z,10.45
2023-02-01T06:27:40.604Z,12.32
2023-02-01T06:30:08.769Z,11.82
2023-02-01T06:32:49.835Z,12.02
2023-02-01T06:35:18.026Z,13.52
2023-02-01T06:37:47.133Z,11.73
2023-02-01T06:40:15.149Z,11.30
2023-02-01T06:42:45.310Z,10.20
2023-02-01T06:45:22.211Z,9.75
2023-02-01T06:47:49.731Z,8.13
2023-02-01T06:50:24.734Z,7.65
2023-02-01T06:53:06.435Z,11.25
2023-02-01T06:55:36.538Z,10.15
2023-02-01T06:58:04.227Z,8.73
2023-02-01T07:00:31.904Z,9.63
2023-02-01T07:02:59.894Z,9.90
2023-02-01T07:05:27.545Z,8.55
2023-02-01T07:07:56.467Z,9.45
2023-02-01T07:10:24.304Z,11.55
2023-02-01T07:12:54.164Z,12.00
2023-02-01T07:15:23.234Z,11.68
2023-02-01T07:17:52.009Z,9.93
2023-02-01T07:20:19.766Z,9.23
2023-02-01T07:22:47.246Z,8.73
2023-02-01T07:25:16.165Z,9.00
2023-02-01T07:27:43.743Z,8.38
2023-02-01T07:30:11.947Z,9.02
2023-02-01T07:32:39.524Z,9.45
2023-02-01T07:35:07.390Z,8.90
2023-02-01T07:37:34.939Z,8.48
2023-02-01T07:40:02.497Z,8.57
2023-02-01T07:42:31.445Z,9.48
2023-02-01T07:45:07.909Z,9.20
2023-02-01T07:47:42.407Z,9.07
2023-02-01T07:50:10.577Z,9.82
2023-02-01T07:52:38.014Z,9.80
2023-02-01T07:55:05.886Z,10.23
2023-02-01T07:57:34.733Z,10.30
2023-02-01T08:00:20.807Z,9.63
2023-02-01T08:02:48.418Z,10.05
2023-02-01T08:05:16.076Z,9.88
2023-02-01T08:07:43.745Z,9.95
2023-02-01T08:10:12.543Z,10.32
2023-02-01T08:12:42.065Z,9.68
2023-02-01T08:15:09.850Z,12.65
2023-02-01T08:17:38.370Z,11.00
2023-02-01T08:20:06.317Z,9.48
2023-02-01T08:22:34.627Z,10.77
2023-02-01T08:25:02.483Z,10.77
2023-02-01T08:27:30.083Z,11.25
2023-02-01T08:29:59.631Z,9.95
2023-02-01T08:32:27.225Z,10.40
2023-02-01T08:34:54.753Z,9.80
2023-02-01T08:37:23.378Z,10.77
2023-02-01T08:39:51.659Z,9.98
2023-02-01T08:42:36.616Z,8.90
2023-02-01T08:45:05.794Z,7.97
2023-02-01T08:47:33.610Z,6.80
2023-02-01T08:50:02.853Z,9.13
2023-02-01T08:52:30.358Z,8.63
2023-02-01T08:54:58.091Z,8.90
2023-02-01T08:57:25.659Z,7.47
2023-02-01T08:59:53.235Z,7.78
2023-02-01T09:02:22.069Z,9.13
2023-02-01T09:04:49.629Z,8.13
2023-02-01T09:07:20.701Z,10.45
2023-02-01T09:09:48.273Z,8.43
2023-02-01T09:12:16.672Z,7.55
2023-02-01T09:14:44.243Z,7.40
2023-02-01T09:17:11.775Z,6.22
2023-02-01T09:19:42.190Z,7.10
2023-02-01T09:22:10.535Z,7.22
2023-02-01T09:24:38.682Z,7.10
2023-02-01T09:27:06.242Z,7.75
2023-02-01T09:29:33.813Z,7.05
2023-02-01T09:32:04.412Z,7.22
2023-02-01T09:34:32.479Z,6.15
2023-02-01T09:37:01.394Z,6.78
2023-02-01T09:39:31.034Z,6.15
2023-02-01T09:42:16.359Z,7.00
2023-02-01T09:44:55.655Z,5.43
2023-02-01T09:47:24.354Z,6.70
2023-02-01T09:49:56.398Z,5.00
2023-02-01T09:52:29.951Z,6.38
2023-02-01T09:55:02.607Z,5.53
2023-02-01T09:57:33.911Z,6.30
2023-02-01T10:00:06.575Z,5.88
2023-02-01T10:02:59.170Z,6.03
2023-02-01T10:05:50.271Z,5.82
2023-02-01T10:09:02.145Z,5.40
2023-02-01T10:11:55.025Z,5.28
2023-02-01T10:14:48.720Z,5.75
2023-02-01T10:20:32.480Z,5.53
2023-02-01T10:23:23.117Z,5.38
2023-02-01T10:26:00.323Z,5.80
2023-02-01T10:31:00.928Z,6.30
2023-02-01T10:33:48.016Z,5.97
2023-02-01T10:36:18.067Z,6.28
2023-02-01T10:38:51.507Z,6.40
2023-02-01T10:41:20.385Z,7.00
2023-02-01T10:43:49.914Z,6.30
2023-02-01T10:46:19.140Z,6.00
2023-02-01T10:48:47.482Z,5.45
2023-02-01T10:51:16.913Z,6.30
2023-02-01T10:53:46.195Z,5.88
2023-02-01T10:56:14.278Z,6.03
2023-02-01T10:58:45.702Z,6.30
2023-02-01T11:01:18.149Z,5.38
2023-02-01T11:03:53.888Z,5.47
2023-02-01T11:06:28.180Z,5.30
2023-02-01T11:08:56.707Z,6.55
2023-02-01T11:11:25.233Z,6.88
2023-02-01T11:13:57.893Z,6.93
2023-02-01T11:16:31.337Z,7.13
2023-02-01T11:19:00.474Z,6.68
2023-02-01T11:21:46.918Z,6.60
2023-02-01T11:24:23.268Z,6.85
2023-02-01T11:26:51.182Z,7.47
2023-02-01T11:29:21.469Z,7.13
2023-02-01T11:31:49.152Z,7.65
2023-02-01T11:34:22.990Z,8.38
2023-02-01T11:36:52.411Z,8.80
2023-02-01T11:39:22.490Z,9.18
2023-02-01T11:42:02.173Z,9.43
2023-02-01T11:44:33.274Z,9.68
2023-02-01T11:47:20.923Z,9.40
2023-02-01T11:49:50.873Z,9.18
2023-02-01T11:52:20.939Z,10.43
2023-02-01T11:54:57.865Z,10.13
2023-02-01T11:57:40.387Z,9.27
2023-02-01T12:00:16.153Z,9.15
2023-02-01T12:03:06.612Z,10.23
2023-02-01T12:05:38.561Z,9.00
2023-02-01T12:08:22.212Z,8.00
2023-02-01T12:10:53.877Z,9.82
2023-02-01T12:13:28.867Z,8.88
2023-02-01T12:16:05.366Z,9.82
2023-02-01T12:18:47.094Z,10.18
2023-02-01T12:21:26.217Z,9.20
2023-02-01T12:24:15.563Z,8.48
2023-02-01T12:26:46.547Z,8.93
2023-02-01T12:29:20.028Z,10.02
2023-02-01T12:32:01.843Z,10.00
2023-02-01T12:34:53.418Z,10.20
2023-02-01T12:37:32.371Z,7.95
2023-02-01T12:40:07.454Z,9.10
2023-02-01T12:42:38.300Z,9.15
2023-02-01T12:45:16.806Z,8.68
2023-02-01T12:47:47.948Z,10.85
2023-02-01T12:50:17.670Z,8.82
2023-02-01T12:52:48.381Z,9.80
2023-02-01T12:55:19.666Z,9.10
2023-02-01T12:57:48.266Z,9.63
2023-02-01T13:00:24.379Z,11.10
2023-02-01T13:02:55.018Z,9.55
2023-02-01T13:05:25.146Z,9.93
2023-02-01T13:07:58.434Z,9.75
2023-02-01T13:10:31.151Z,10.88
2023-02-01T13:13:01.756Z,10.02
2023-02-01T13:15:30.582Z,9.65
2023-02-01T13:18:01.474Z,9.43
2023-02-01T13:20:31.963Z,10.27
2023-02-01T13:23:03.451Z,10.43
2023-02-01T13:25:34.894Z,9.85
2023-02-01T13:28:05.160Z,9.80
2023-02-01T13:30:36.932Z,9.73
2023-02-01T13:33:54.404Z,9.65
2023-02-01T13:36:09.061Z,9.85
2023-02-01T13:38:56.249Z,9.52
2023-02-01T13:41:29.949Z,9.00
2023-02-01T13:43:58.616Z,10.10
2023-02-01T13:46:27.132Z,8.95
2023-02-01T13:48:58.394Z,10.70
2023-02-01T13:51:38.044Z,10.05
2023-02-01T13:54:08.984Z,11.20
2023-02-01T13:56:45.439Z,12.75
2023-02-01T13:59:37.168Z,14.98
2023-02-01T14:02:19.786Z,11.98
2023-02-01T14:04:48.983Z,11.90
2023-02-01T14:07:23.995Z,12.57
2023-02-01T14:09:51.566Z,12.18
2023-02-01T14:12:37.560Z,11.52
2023-02-01T14:15:28.916Z,10.55
2023-02-01T14:17:57.060Z,11.07
2023-02-01T14:20:50.070Z,11.38
2023-02-01T14:23:19.423Z,11.23
2023-02-01T14:25:47.763Z,11.50
2023-02-01T14:28:24.804Z,11.93
2023-02-01T14:30:54.376Z,11.85
2023-02-01T14:33:23.485Z,11.45
2023-02-01T14:36:07.988Z,12.27
2023-02-01T14:38:36.696Z,13.43
2023-02-01T14:41:16.094Z,12.98
2023-02-01T14:43:53.663Z,12.65
2023-02-01T14:46:42.526Z,13.43
2023-02-01T14:49:10.690Z,13.43
2023-02-01T14:51:39.108Z,13.85
2023-02-01T14:54:07.003Z,13.02
2023-02-01T14:56:34.679Z,15.00
2023-02-01T14:59:05.401Z,14.65
2023-02-01T15:01:35.072Z,14.82
2023-02-01T15:04:05.342Z,15.10
2023-02-01T15:06:34.973Z,13.27
2023-02-01T15:09:04.747Z,13.98
2023-02-01T15:11:32.346Z,14.45
2023-02-01T15:14:01.451Z,15.63
2023-02-01T15:16:28.976Z,12.98
2023-02-01T15:19:11.089Z,13.65
2023-02-01T15:21:46.020Z,13.80
2023-02-01T15:24:14.225Z,13.32
2023-02-01T15:26:42.133Z,13.20
2023-02-01T15:29:12.876Z,12.50
2023-02-01T15:31:41.746Z,13.32
2023-02-01T15:34:10.920Z,13.27
2023-02-01T15:36:38.868Z,13.40
2023-02-01T15:39:19.479Z,13.95
2023-02-01T15:41:52.213Z,13.32
2023-02-01T15:44:21.679Z,12.70
2023-02-01T15:46:50.847Z,12.23
2023-02-01T15:49:22.568Z,12.57
2023-02-01T15:51:50.337Z,12.10
2023-02-01T15:54:20.626Z,10.75
2023-02-01T15:56:53.733Z,12.73
2023-02-01T15:59:22.021Z,11.38
2023-02-01T16:01:49.987Z,11.07
2023-02-01T16:04:19.318Z,10.85
2023-02-01T16:06:50.081Z,11.65
2023-02-01T19:32:24.769Z,11.65
2023-02-01T19:34:53.204Z,9.77
2023-02-01T19:37:21.001Z,9.40
2023-02-01T19:39:48.675Z,10.13
2023-02-01T19:42:16.356Z,8.73
2023-02-01T19:44:43.863Z,10.32
2023-02-01T19:47:11.495Z,10.52
2023-02-01T19:49:40.560Z,10.15
2023-02-01T19:52:08.163Z,10.27
2023-02-01T19:54:35.715Z,10.35
2023-02-01T19:57:03.555Z,8.85
2023-02-01T19:59:32.104Z,8.45
2023-02-01T20:02:01.466Z,8.38
2023-02-01T20:04:31.487Z,8.85
2023-02-01T20:07:00.565Z,8.63
2023-02-01T20:09:31.651Z,10.57
2023-02-01T20:12:01.369Z,9.13
2023-02-01T20:14:32.989Z,9.27
2023-02-01T20:17:22.084Z,10.60
2023-02-01T20:19:58.722Z,8.43
2023-02-01T20:22:28.397Z,10.20
2023-02-01T20:24:57.874Z,8.90
2023-02-01T20:27:28.736Z,8.15
2023-02-01T20:29:56.926Z,8.10
2023-02-01T20:32:32.089Z,9.98
2023-02-01T20:35:24.531Z,10.90
2023-02-01T21:26:44.561Z,7.45
2023-02-01T21:29:16.672Z,7.40
2023-02-01T21:31:44.508Z,7.32
2023-02-01T21:34:12.305Z,7.85
2023-02-01T21:36:39.796Z,7.05
2023-02-01T21:39:10.906Z,6.68
2023-02-01T21:41:56.532Z,6.38
2023-02-01T21:44:25.482Z,7.45
2023-02-01T21:46:53.105Z,6.72
2023-02-01T21:49:20.629Z,7.93
2023-02-01T21:51:48.564Z,7.22
2023-02-01T21:54:17.504Z,8.27
2023-02-01T21:56:45.050Z,6.20
2023-02-01T21:59:12.884Z,7.50
2023-02-01T22:01:42.395Z,7.72
2023-02-01T22:04:10.627Z,7.25
2023-02-01T22:06:39.042Z,7.38
2023-02-01T22:09:06.806Z,8.02
2023-02-01T22:11:35.615Z,7.90
2023-02-01T22:14:03.215Z,7.97
2023-02-01T22:16:31.860Z,8.10
2023-02-01T22:19:03.444Z,8.25
2023-02-01T22:21:31.026Z,7.38
2023-02-01T22:23:59.384Z,7.47
2023-02-01T22:26:27.437Z,8.50
2023-02-01T22:28:55.406Z,6.95
2023-02-01T22:31:23.900Z,7.65
2023-02-01T22:33:51.686Z,7.35
2023-02-01T22:36:21.022Z,8.10
2023-02-01T22:38:49.540Z,10.15
2023-02-01T22:41:17.065Z,9.90
2023-02-01T22:43:44.735Z,9.60
2023-02-01T22:46:13.123Z,10.20
2023-02-01T22:48:41.211Z,10.52
2023-02-01T22:51:10.146Z,10.00
2023-02-01T22:53:39.183Z,8.38
2023-02-01T22:56:08.020Z,10.02
2023-02-01T22:58:36.275Z,8.95
2023-02-01T23:01:08.461Z,8.70
2023-02-01T23:03:36.387Z,8.27
2023-02-01T23:06:04.814Z,7.20
2023-02-01T23:08:33.697Z,7.20
2023-02-01T23:11:04.312Z,7.78
2023-02-01T23:13:32.101Z,8.88
2023-02-01T23:15:59.721Z,6.35
2023-02-01T23:18:28.841Z,7.05
2023-02-01T23:20:56.322Z,7.85
2023-02-01T23:23:23.950Z,6.22
2023-02-01T23:25:52.073Z,6.28
2023-02-01T23:28:21.002Z,6.38
2023-02-01T23:30:49.275Z,7.00
2023-02-01T23:33:17.073Z,7.00
2023-02-01T23:35:44.822Z,7.93
2023-02-01T23:38:12.395Z,7.63
2023-02-01T23:40:39.930Z,8.48
2023-02-01T23:43:25.152Z,7.25
2023-02-01T23:45:58.316Z,7.18
2023-02-01T23:48:25.880Z,7.27
2023-02-01T23:50:53.453Z,8.20
2023-02-01T23:53:20.991Z,7.80
2023-02-01T23:55:52.057Z,7.10
2023-02-01T23:58:19.573Z,7.53
